createdAt,value
2023-03-03T00:00:33.144Z,17.13
2023-03-03T00:03:02.386Z,17.60
2023-03-03T00:05:30.484Z,16.37
2023-03-03T00:07:58.519Z,17.17
2023-03-03T00:10:26.575Z,16.70
2023-03-03T00:12:56.006Z,18.33
2023-03-03T00:15:24.782Z,17.90
2023-03-03T00:17:52.960Z,18.07
2023-03-03T00:20:31.060Z,17.07
2023-03-03T00:23:00.417Z,18.03
2023-03-03T00:25:30.208Z,19.00
2023-03-03T00:28:01.823Z,19.33
2023-03-03T00:30:29.860Z,17.80
2023-03-03T00:32:57.911Z,18.93
2023-03-03T00:35:27.008Z,17.67
2023-03-03T00:37:56.784Z,19.17
2023-03-03T00:40:25.492Z,17.00
2023-03-03T00:42:54.666Z,19.73
2023-03-03T00:45:31.130Z,19.53
2023-03-03T00:48:08.982Z,18.27
2023-03-03T00:50:37.114Z,17.97
2023-03-03T00:53:07.114Z,18.90
2023-03-03T00:55:35.639Z,18.80
2023-03-03T00:58:04.091Z,19.30
2023-03-03T01:00:34.289Z,17.53
2023-03-03T01:03:04.189Z,18.30
2023-03-03T01:05:32.228Z,18.87
2023-03-03T01:08:00.307Z,18.37
2023-03-03T01:10:28.529Z,20.77
2023-03-03T01:12:57.793Z,18.50
2023-03-03T01:15:25.841Z,19.27
2023-03-03T01:17:59.363Z,19.43
2023-03-03T01:20:27.432Z,19.53
2023-03-03T01:22:55.554Z,18.70
2023-03-03T01:25:23.551Z,21.47
2023-03-03T01:27:51.607Z,19.47
2023-03-03T01:30:19.792Z,20.00
2023-03-03T01:32:47.846Z,19.57
2023-03-03T01:35:17.237Z,20.50
2023-03-03T01:37:45.282Z,21.03
2023-03-03T01:40:15.555Z,20.57
2023-03-03T01:42:43.652Z,19.93
2023-03-03T01:45:19.563Z,19.07
2023-03-03T01:47:50.014Z,20.13
2023-03-03T01:50:28.767Z,21.17
2023-03-03T01:52:56.805Z,21.77
2023-03-03T01:55:26.366Z,20.63
2023-03-03T01:57:57.767Z,20.13
2023-03-03T02:00:26.007Z,19.47
2023-03-03T02:02:54.092Z,19.77
2023-03-03T02:05:23.517Z,21.27
2023-03-03T02:07:51.604Z,20.60
2023-03-03T02:10:20.094Z,19.93
2023-03-03T02:12:50.415Z,18.90
2023-03-03T02:15:20.505Z,18.00
2023-03-03T02:17:48.626Z,19.77
2023-03-03T02:20:19.149Z,19.47
2023-03-03T02:22:52.215Z,21.20
2023-03-03T02:25:24.132Z,19.50
2023-03-03T02:27:53.547Z,19.47
2023-03-03T02:30:22.861Z,17.93
2023-03-03T02:32:50.902Z,18.00
2023-03-03T02:35:32.931Z,20.90
2023-03-03T02:38:06.127Z,20.03
2023-03-03T02:40:35.968Z,18.57
2023-03-03T02:43:05.411Z,19.70
2023-03-03T02:45:33.575Z,20.77
2023-03-03T02:48:01.688Z,19.80
2023-03-03T02:50:29.717Z,19.63
2023-03-03T02:52:57.759Z,18.40
2023-03-03T02:55:25.872Z,19.67
2023-03-03T02:57:53.892Z,19.33
2023-03-03T03:00:23.495Z,19.87
2023-03-03T03:02:51.505Z,19.37
2023-03-03T03:05:19.548Z,19.80
2023-03-03T03:07:47.556Z,18.80
2023-03-03T03:10:15.981Z,19.83
2023-03-03T03:12:44.028Z,19.87
2023-03-03T03:15:12.547Z,20.27
2023-03-03T03:17:42.278Z,18.80
2023-03-03T03:20:11.488Z,18.50
2023-03-03T03:22:39.521Z,19.43
2023-03-03T03:25:08.393Z,17.20
2023-03-03T03:27:36.544Z,18.17
2023-03-03T03:30:04.905Z,17.77
2023-03-03T03:32:32.931Z,17.80
2023-03-03T03:35:02.432Z,18.23
2023-03-03T03:37:30.473Z,18.73
2023-03-03T03:39:58.547Z,17.17
2023-03-03T03:42:26.584Z,18.70
2023-03-03T03:44:54.679Z,17.10
2023-03-03T03:47:22.728Z,17.43
2023-03-03T03:49:50.799Z,16.50
2023-03-03T03:52:20.218Z,16.83
2023-03-03T03:54:48.236Z,16.33
2023-03-03T03:57:16.275Z,17.60
2023-03-03T03:59:44.545Z,17.43
2023-03-03T04:02:12.628Z,16.00
2023-03-03T04:04:40.714Z,17.03
2023-03-03T04:07:10.759Z,17.13
2023-03-03T04:09:41.005Z,16.93
2023-03-03T04:12:09.092Z,15.77
2023-03-03T04:14:37.180Z,16.93
2023-03-03T04:17:05.241Z,17.13
2023-03-03T04:19:33.257Z,16.50
2023-03-03T04:22:01.328Z,15.57
2023-03-03T04:24:29.373Z,15.20
2023-03-03T04:26:58.807Z,15.17
2023-03-03T04:29:26.926Z,15.60
2023-03-03T04:31:55.242Z,15.10
2023-03-03T04:34:23.318Z,14.67
2023-03-03T04:36:51.687Z,13.77
2023-03-03T04:39:19.726Z,15.07
2023-03-03T04:41:52.100Z,14.17
2023-03-03T04:44:21.500Z,13.30
2023-03-03T04:46:49.624Z,13.80
2023-03-03T04:49:17.647Z,13.13
2023-03-03T04:51:45.740Z,13.70
2023-03-03T04:54:13.763Z,13.40
2023-03-03T04:56:41.776Z,13.20
2023-03-03T04:59:09.815Z,13.47
2023-03-03T05:01:39.348Z,13.10
2023-03-03T05:04:07.685Z,12.77
2023-03-03T05:06:35.733Z,13.77
2023-03-03T05:09:03.831Z,12.40
2023-03-03T05:11:32.590Z,12.03
2023-03-03T05:14:04.144Z,13.10
2023-03-03T05:16:34.130Z,11.93
2023-03-03T05:19:03.527Z,12.03
2023-03-03T05:21:31.586Z,11.47
2023-03-03T05:23:59.608Z,12.50
2023-03-03T05:26:27.697Z,11.60
2023-03-03T05:28:55.729Z,11.80
2023-03-03T05:31:24.051Z,12.10
2023-03-03T05:33:52.110Z,11.47
2023-03-03T05:36:21.544Z,11.60
2023-03-03T05:38:49.751Z,12.33
2023-03-03T05:41:17.792Z,12.03
2023-03-03T05:43:45.976Z,11.27
2023-03-03T05:46:14.040Z,10.50
2023-03-03T05:48:42.102Z,11.67
2023-03-03T05:51:10.137Z,10.93
2023-03-03T05:53:41.642Z,12.80
2023-03-03T05:56:09.661Z,11.43
2023-03-03T05:58:46.205Z,11.20
2023-03-03T06:01:14.242Z,12.10
2023-03-03T06:03:42.337Z,12.40
2023-03-03T06:06:10.636Z,11.83
2023-03-03T06:08:38.719Z,12.30
2023-03-03T06:11:08.233Z,11.63
2023-03-03T06:13:40.958Z,12.90
2023-03-03T06:16:09.464Z,13.00
2023-03-03T06:18:37.533Z,12.30
2023-03-03T06:21:05.851Z,11.40
2023-03-03T06:23:33.894Z,11.60
2023-03-03T06:26:01.949Z,11.63
2023-03-03T06:28:31.380Z,12.30
2023-03-03T06:30:59.420Z,12.87
2023-03-03T06:33:27.476Z,11.27
2023-03-03T06:35:55.806Z,11.57
2023-03-03T06:38:23.868Z,11.97
2023-03-03T06:40:51.876Z,11.50
2023-03-03T06:43:20.586Z,11.37
2023-03-03T06:45:50.033Z,12.97
2023-03-03T06:48:18.117Z,11.73
2023-03-03T06:50:46.190Z,11.33
2023-03-03T06:53:14.802Z,11.43
2023-03-03T06:55:44.779Z,12.00
2023-03-03T06:58:14.826Z,12.80
2023-03-03T07:00:44.168Z,12.37
2023-03-03T07:03:17.870Z,11.60
2023-03-03T07:05:46.032Z,12.23
2023-03-03T07:08:15.541Z,11.53
2023-03-03T07:10:43.688Z,11.80
2023-03-03T07:13:29.890Z,11.60
2023-03-03T07:15:58.549Z,11.90
2023-03-03T07:18:46.733Z,11.90
2023-03-03T07:21:17.746Z,12.67
2023-03-03T07:23:46.334Z,12.53
2023-03-03T07:26:15.148Z,10.83
2023-03-03T07:28:43.898Z,12.23
2023-03-03T07:31:32.233Z,11.83
2023-03-03T07:34:02.343Z,12.07
2023-03-03T07:36:31.741Z,12.00
2023-03-03T07:39:01.460Z,12.37
2023-03-03T07:41:29.557Z,12.43
2023-03-03T07:44:06.581Z,13.20
2023-03-03T07:46:38.052Z,11.60
2023-03-03T07:49:15.941Z,12.23
2023-03-03T07:51:43.972Z,12.73
2023-03-03T07:54:31.457Z,12.37
2023-03-03T07:57:00.765Z,12.30
2023-03-03T07:59:28.808Z,12.13
2023-03-03T08:01:58.242Z,12.53
2023-03-03T08:04:30.645Z,13.10
2023-03-03T08:06:59.162Z,12.67
2023-03-03T08:09:39.363Z,12.30
2023-03-03T08:12:30.227Z,12.07
2023-03-03T08:14:59.030Z,12.40
2023-03-03T08:17:28.872Z,11.40
2023-03-03T08:19:58.320Z,12.00
2023-03-03T08:22:30.376Z,11.77
2023-03-03T08:24:58.405Z,12.67
2023-03-03T08:27:26.481Z,11.77
2023-03-03T08:29:54.503Z,12.10
2023-03-03T08:32:22.884Z,11.80
2023-03-03T08:34:51.003Z,11.57
2023-03-03T08:37:20.398Z,12.33
2023-03-03T08:39:48.466Z,11.60
2023-03-03T08:42:18.448Z,11.67
2023-03-03T08:44:46.500Z,11.83
2023-03-03T08:47:14.542Z,12.13
2023-03-03T08:49:42.588Z,11.20
2023-03-03T08:52:10.623Z,11.87
2023-03-03T08:54:40.043Z,12.93
2023-03-03T08:57:08.091Z,11.40
2023-03-03T08:59:39.038Z,11.40
2023-03-03T09:02:07.172Z,11.70
2023-03-03T09:04:35.526Z,11.67
2023-03-03T09:07:03.553Z,13.80
2023-03-03T09:09:31.648Z,11.00
2023-03-03T09:12:03.304Z,11.93
2023-03-03T09:14:31.300Z,12.33
2023-03-03T09:17:09.161Z,12.43
2023-03-03T09:19:37.540Z,11.47
2023-03-03T09:22:21.621Z,12.33
2023-03-03T09:24:49.980Z,11.17
2023-03-03T09:27:21.664Z,11.50
2023-03-03T09:29:49.707Z,11.67
2023-03-03T09:32:32.700Z,11.57
2023-03-03T09:35:27.699Z,12.27
2023-03-03T09:37:55.732Z,12.97
2023-03-03T09:40:38.586Z,12.00
2023-03-03T09:43:08.541Z,10.40
2023-03-03T09:45:48.441Z,10.23
2023-03-03T09:48:50.616Z,11.20
2023-03-03T09:51:39.534Z,11.77
2023-03-03T09:54:14.538Z,11.40
2023-03-03T09:56:44.668Z,11.70
2023-03-03T09:59:24.157Z,11.00
2023-03-03T10:01:57.753Z,10.37
2023-03-03T10:04:56.268Z,11.00
2023-03-03T10:07:37.187Z,11.20
2023-03-03T10:10:13.360Z,11.57
2023-03-03T10:12:43.227Z,10.73
2023-03-03T10:15:19.162Z,11.53
2023-03-03T10:17:50.918Z,10.27
2023-03-03T10:20:25.414Z,11.03
2023-03-03T10:22:54.608Z,10.10
2023-03-03T10:25:27.695Z,10.57
2023-03-03T10:28:22.325Z,10.53
2023-03-03T10:31:05.555Z,10.30
2023-03-03T10:33:40.754Z,10.40
2023-03-03T10:36:32.628Z,10.03
2023-03-03T10:39:05.695Z,10.33
2023-03-03T10:41:43.087Z,9.83
2023-03-03T10:44:36.692Z,10.70
2023-03-03T10:47:31.719Z,12.17
2023-03-03T10:50:05.509Z,9.87
2023-03-03T10:52:38.124Z,10.23
2023-03-03T10:55:20.801Z,9.73
2023-03-03T10:57:53.256Z,9.57
2023-03-03T11:00:23.778Z,9.87
2023-03-03T11:03:03.160Z,10.77
2023-03-03T11:05:34.188Z,10.47
2023-03-03T11:08:04.343Z,9.70
2023-03-03T11:10:40.165Z,10.60
2023-03-03T11:13:13.704Z,10.13
2023-03-03T11:16:00.856Z,10.27
2023-03-03T11:18:39.238Z,10.90
2023-03-03T11:21:14.614Z,10.90
2023-03-03T11:23:58.969Z,10.40
2023-03-03T11:26:35.530Z,10.40
2023-03-03T11:29:20.540Z,10.63
2023-03-03T11:31:49.638Z,10.10
2023-03-03T11:34:26.342Z,9.83
2023-03-03T11:36:56.397Z,11.20
2023-03-03T11:39:26.688Z,10.73
2023-03-03T11:42:02.551Z,11.40
2023-03-03T11:44:32.201Z,9.80
2023-03-03T11:47:01.416Z,11.50
2023-03-03T11:49:34.603Z,10.60
2023-03-03T11:52:07.469Z,10.70
2023-03-03T11:54:40.165Z,10.10
2023-03-03T11:57:16.527Z,11.27
2023-03-03T11:59:55.557Z,11.33
2023-03-03T12:02:45.105Z,11.10
2023-03-03T12:05:16.635Z,11.10
2023-03-03T12:07:49.046Z,9.87
2023-03-03T12:10:25.897Z,10.63
2023-03-03T12:12:56.739Z,10.70
2023-03-03T12:15:29.129Z,10.97
2023-03-03T12:18:10.796Z,10.30
2023-03-03T12:20:44.243Z,10.63
2023-03-03T12:23:36.986Z,11.50
2023-03-03T12:26:07.199Z,10.83
2023-03-03T12:28:37.456Z,11.00
2023-03-03T12:31:15.509Z,10.60
2023-03-03T12:33:54.100Z,10.30
2023-03-03T12:36:31.956Z,10.73
2023-03-03T12:39:02.328Z,10.73
2023-03-03T12:41:33.623Z,11.77
2023-03-03T12:44:03.905Z,11.43
2023-03-03T12:46:37.291Z,10.33
2023-03-03T12:49:05.514Z,10.77
2023-03-03T12:51:40.755Z,11.00
2023-03-03T12:54:38.361Z,10.27
2023-03-03T12:57:11.626Z,9.60
2023-03-03T12:59:41.963Z,9.87
2023-03-03T13:02:31.139Z,11.17
2023-03-03T13:05:03.453Z,10.70
2023-03-03T13:07:36.282Z,10.80
2023-03-03T13:10:09.477Z,11.00
2023-03-03T13:12:41.860Z,11.37
2023-03-03T13:15:16.368Z,9.93
2023-03-03T13:17:49.986Z,10.70
2023-03-03T13:20:23.232Z,10.13
2023-03-03T13:22:55.850Z,10.50
2023-03-03T13:25:42.162Z,9.90
2023-03-03T13:28:14.973Z,10.53
2023-03-03T13:30:47.501Z,10.07
2023-03-03T13:33:17.094Z,10.80
2023-03-03T13:35:46.391Z,10.33
2023-03-03T13:38:19.058Z,10.30
2023-03-03T13:40:47.543Z,10.13
2023-03-03T13:43:18.923Z,10.80
2023-03-03T13:45:53.014Z,10.93
2023-03-03T13:48:35.973Z,9.37
2023-03-03T13:51:05.426Z,9.87
2023-03-03T13:53:41.688Z,10.23
2023-03-03T13:56:16.638Z,9.53
2023-03-03T13:58:47.183Z,10.30
2023-03-03T14:01:17.325Z,10.07
2023-03-03T14:03:55.515Z,10.40
2023-03-03T14:06:24.779Z,11.97
2023-03-03T14:09:02.153Z,9.87
2023-03-03T14:11:31.699Z,11.00
2023-03-03T14:14:04.403Z,11.13
2023-03-03T14:16:41.654Z,9.70
2023-03-03T14:19:13.253Z,9.50
2023-03-03T14:21:44.284Z,10.63
2023-03-03T14:24:16.761Z,9.53
2023-03-03T14:26:49.715Z,9.83
2023-03-03T14:29:23.496Z,10.83
2023-03-03T14:31:52.058Z,10.70
2023-03-03T14:34:35.496Z,9.67
2023-03-03T14:37:21.007Z,9.47
2023-03-03T14:40:16.314Z,9.60
2023-03-03T14:42:50.473Z,9.73
2023-03-03T14:45:33.548Z,8.93
2023-03-03T14:48:01.750Z,10.33
2023-03-03T14:50:33.287Z,10.07
2023-03-03T14:53:12.120Z,10.33
2023-03-03T14:55:43.089Z,9.17
2023-03-03T14:58:26.691Z,8.73
2023-03-03T15:01:14.706Z,10.10
2023-03-03T15:03:47.953Z,9.20
2023-03-03T15:06:32.504Z,8.70
2023-03-03T15:09:25.896Z,8.60
2023-03-03T15:11:55.629Z,10.17
2023-03-03T15:14:31.616Z,8.30
2023-03-03T15:17:14.711Z,9.07
2023-03-03T15:19:46.965Z,8.20
2023-03-03T15:22:20.363Z,9.23
2023-03-03T15:24:52.704Z,8.47
2023-03-03T15:27:24.392Z,8.87
2023-03-03T15:30:03.462Z,9.20
2023-03-03T15:32:34.705Z,7.90
2023-03-03T15:35:06.022Z,8.67
2023-03-03T15:37:40.325Z,8.00
2023-03-03T15:40:15.534Z,8.70
2023-03-03T15:42:49.228Z,8.00
2023-03-03T15:45:21.377Z,8.40
2023-03-03T15:47:57.999Z,8.73
2023-03-03T15:50:31.488Z,8.67
2023-03-03T15:53:06.364Z,8.60
2023-03-03T15:55:47.634Z,9.07
2023-03-03T15:58:48.402Z,8.37
2023-03-03T16:01:19.492Z,7.93
2023-03-03T16:03:48.852Z,8.57
2023-03-03T16:06:17.848Z,7.93
2023-03-03T16:08:49.682Z,7.10
2023-03-03T16:11:21.225Z,7.90
2023-03-03T16:13:59.392Z,8.03
2023-03-03T16:16:34.695Z,7.53
2023-03-03T16:19:08.229Z,7.83
2023-03-03T16:21:51.341Z,8.37
2023-03-03T16:24:24.801Z,7.53
2023-03-03T16:26:55.142Z,7.30
2023-03-03T16:29:38.271Z,7.70
2023-03-03T16:32:13.215Z,8.00
2023-03-03T16:34:43.989Z,7.77
2023-03-03T16:37:16.237Z,7.10
2023-03-03T16:39:56.506Z,7.23
2023-03-03T16:42:29.186Z,7.00
2023-03-03T16:45:16.407Z,7.27
2023-03-03T16:48:01.838Z,7.60
2023-03-03T16:50:32.637Z,7.00
2023-03-03T16:53:03.602Z,7.17
2023-03-03T16:55:33.232Z,6.97
2023-03-03T16:58:07.298Z,7.37
2023-03-03T17:00:40.319Z,7.10
2023-03-03T17:03:19.740Z,7.37
2023-03-03T17:05:51.390Z,7.30
2023-03-03T17:08:27.951Z,7.70
2023-03-03T17:10:59.329Z,6.97
2023-03-03T17:13:56.224Z,6.80
2023-03-03T17:16:33.249Z,6.80
2023-03-03T17:19:14.270Z,7.50
2023-03-03T17:21:52.785Z,6.67
2023-03-03T17:24:23.390Z,6.87
2023-03-03T17:26:58.168Z,7.23
2023-03-03T17:29:35.500Z,6.40
2023-03-03T17:32:12.357Z,6.27
2023-03-03T17:34:45.657Z,6.53
2023-03-03T17:37:21.941Z,6.43
2023-03-03T17:40:04.928Z,6.30
2023-03-03T17:42:38.134Z,5.70
2023-03-03T17:45:09.351Z,6.50
2023-03-03T17:47:52.301Z,6.40
2023-03-03T17:50:30.325Z,6.43
2023-03-03T17:53:19.814Z,6.30
2023-03-03T17:55:53.947Z,7.03
2023-03-03T17:58:44.889Z,6.03
2023-03-03T18:01:19.090Z,6.37
2023-03-03T18:04:29.674Z,6.67
2023-03-03T18:07:19.547Z,6.80
2023-03-03T18:10:08.336Z,6.80
2023-03-03T18:12:39.287Z,6.40
2023-03-03T18:15:28.892Z,6.43
2023-03-03T18:18:04.778Z,6.57
2023-03-03T18:20:45.565Z,6.50
2023-03-03T18:23:35.175Z,6.67
2023-03-03T18:26:03.469Z,7.70
2023-03-03T18:28:44.480Z,7.03
2023-03-03T18:31:21.156Z,7.47
2023-03-03T18:34:03.669Z,7.67
2023-03-03T18:36:40.482Z,7.70
2023-03-03T18:39:10.693Z,6.83
2023-03-03T18:42:05.231Z,6.50
2023-03-03T18:44:33.293Z,7.50
2023-03-03T18:47:01.331Z,7.27
2023-03-03T18:49:55.705Z,7.53
2023-03-03T18:52:29.272Z,7.53
2023-03-03T18:55:19.931Z,7.40
2023-03-03T18:58:29.549Z,7.13
2023-03-03T19:00:59.881Z,7.50
2023-03-03T19:03:34.231Z,7.50
2023-03-03T19:06:02.749Z,8.07
2023-03-03T19:08:46.569Z,7.43
2023-03-03T19:11:33.501Z,6.80
2023-03-03T19:14:25.641Z,7.47
2023-03-03T19:16:53.766Z,7.40
2023-03-03T19:19:22.580Z,7.97
2023-03-03T19:21:52.191Z,7.27
2023-03-03T19:24:29.232Z,6.77
2023-03-03T19:27:18.106Z,7.30
2023-03-03T19:30:28.046Z,6.70
2023-03-03T19:33:22.047Z,7.53
2023-03-03T19:36:25.672Z,7.73
2023-03-03T19:39:02.959Z,7.33
2023-03-03T19:41:43.689Z,7.60
2023-03-03T19:44:19.911Z,8.30
2023-03-03T19:46:55.101Z,7.47
2023-03-03T19:49:28.989Z,8.50
2023-03-03T19:52:00.726Z,7.80
2023-03-03T19:54:52.467Z,7.60
2023-03-03T19:57:27.894Z,8.00
2023-03-03T19:59:57.469Z,7.87
2023-03-03T20:02:38.149Z,8.30
2023-03-03T20:05:09.683Z,7.87
2023-03-03T20:07:41.820Z,8.07
2023-03-03T20:10:23.311Z,7.83
2023-03-03T20:13:03.769Z,9.37
2023-03-03T20:15:39.724Z,8.90
2023-03-03T20:18:36.620Z,8.80
2023-03-03T20:21:21.082Z,8.37
2023-03-03T20:23:58.059Z,8.90
2023-03-03T20:26:31.385Z,8.80
2023-03-03T20:29:16.315Z,8.27
2023-03-03T20:31:50.051Z,8.87
2023-03-03T20:34:21.249Z,9.30
2023-03-03T20:36:57.441Z,9.17
2023-03-03T20:39:35.545Z,9.57
2023-03-03T20:42:08.903Z,9.23
2023-03-03T20:44:50.169Z,9.67
2023-03-03T20:47:22.029Z,9.33
2023-03-03T20:49:57.577Z,9.47
2023-03-03T20:52:30.940Z,8.37
2023-03-03T20:55:02.629Z,7.97
2023-03-03T20:57:35.047Z,8.30
2023-03-03T21:00:06.011Z,9.60
2023-03-03T21:02:36.533Z,9.20
2023-03-03T21:05:13.966Z,8.80
2023-03-03T21:07:51.994Z,9.97
2023-03-03T21:10:24.091Z,7.73
2023-03-03T21:12:53.834Z,8.50
2023-03-03T21:15:28.233Z,9.73
2023-03-03T21:17:57.598Z,9.43
2023-03-03T21:20:30.793Z,8.80
2023-03-03T21:22:59.243Z,8.80
2023-03-03T21:25:52.204Z,9.00
2023-03-03T21:28:22.155Z,9.10
2023-03-03T21:31:14.250Z,9.17
2023-03-03T21:33:52.980Z,9.80
2023-03-03T21:36:23.310Z,9.10
2023-03-03T21:38:51.761Z,9.63
2023-03-03T21:41:19.821Z,10.93
2023-03-03T21:43:48.637Z,9.53
2023-03-03T21:46:20.553Z,8.13
2023-03-03T21:48:48.782Z,9.40
2023-03-03T21:51:16.933Z,9.63
2023-03-03T21:53:45.736Z,10.33
2023-03-03T21:56:14.155Z,9.60
2023-03-03T21:58:42.314Z,9.87
2023-03-03T22:01:10.466Z,8.77
2023-03-03T22:03:40.686Z,9.20
2023-03-03T22:06:08.971Z,9.67
2023-03-03T22:08:37.018Z,9.40
2023-03-03T22:11:10.934Z,9.03
2023-03-03T22:13:39.981Z,10.37
2023-03-03T22:16:08.804Z,9.73
2023-03-03T22:18:36.897Z,9.50
2023-03-03T22:21:06.882Z,10.43
2023-03-03T22:23:34.927Z,10.03
2023-03-03T22:26:03.113Z,9.63
2023-03-03T22:28:31.137Z,9.30
2023-03-03T22:30:59.217Z,10.60
2023-03-03T22:33:27.310Z,9.10
2023-03-03T22:35:55.362Z,8.90
2023-03-03T22:38:25.213Z,9.13
2023-03-03T22:40:54.361Z,8.60
2023-03-03T22:43:22.428Z,8.67
2023-03-03T22:45:50.890Z,8.37
2023-03-03T22:48:19.004Z,8.67
2023-03-03T22:50:47.518Z,9.07
2023-03-03T22:53:15.567Z,8.50
2023-03-03T22:55:44.984Z,8.83
2023-03-03T22:58:13.119Z,8.37
2023-03-03T23:00:41.817Z,8.17
2023-03-03T23:03:10.659Z,8.43
2023-03-03T23:05:39.136Z,8.37
2023-03-03T23:08:08.588Z,7.40
2023-03-03T23:10:36.636Z,7.33
2023-03-03T23:13:06.066Z,7.60
2023-03-03T23:15:34.098Z,7.10
2023-03-03T23:18:02.118Z,6.87
2023-03-03T23:20:30.790Z,7.50
2023-03-03T23:22:58.903Z,6.30
2023-03-03T23:25:28.767Z,6.40
2023-03-03T23:27:56.976Z,6.57
2023-03-03T23:30:30.452Z,7.00
2023-03-03T23:32:58.492Z,6.70
2023-03-03T23:35:26.566Z,6.27
2023-03-03T23:37:54.591Z,5.70
2023-03-03T23:40:22.785Z,6.30
2023-03-03T23:42:50.844Z,6.43
2023-03-03T23:45:18.983Z,6.27
2023-03-03T23:47:48.411Z,5.80
2023-03-03T23:50:16.431Z,6.03
2023-03-03T23:52:44.459Z,5.30
2023-03-03T23:55:17.162Z,5.40
2023-03-03T23:57:45.159Z,6.03
